sensor_id;sensor_type;location;lat;lon;timestamp;P1;durP1;ratioP1;P2;durP2;ratioP2
22515;SDS011;11424;48.860;9.624;2023-05-31T00:02:34;2;;;2.4;;
22515;SDS011;11424;48.860;9.624;2023-05-31T00:07:34;2;;;2.3;;
22515;SDS011;11424;48.860;9.624;2023-05-31T00:12:34;2;;;2.3;;
22515;SDS011;11424;48.860;9.624;2023-05-31T00:17:34;1.6;;;1.7;;
22515;SDS011;11424;48.860;9.624;2023-05-31T00:22:34;2.4;;;2.9;;
22515;SDS011;11424;48.860;9.624;2023-05-31T00:27:34;1.8;;;1.9;;
22515;SDS011;11424;48.860;9.624;2023-05-31T00:32:34;2;;;2.2;;
22515;SDS011;11424;48.860;9.624;2023-05-31T00:37:34;1.7;;;3;;
22515;SDS011;11424;48.860;9.624;2023-05-31T00:42:34;1.6;;;1.7;;
22515;SDS011;11424;48.860;9.624;2023-05-31T00:47:34;2.3;;;3.2;;
22515;SDS011;11424;48.860;9.624;2023-05-31T00:52:34;2.2;;;2.5;;
22515;SDS011;11424;48.860;9.624;2023-05-31T00:57:34;2.9;;;3.2;;
22515;SDS011;11424;48.860;9.624;2023-05-31T01:02:35;2.4;;;2.7;;
22515;SDS011;11424;48.860;9.624;2023-05-31T01:07:35;4.5;;;4.9;;
22515;SDS011;11424;48.860;9.624;2023-05-31T01:12:37;4.9;;;5.3;;
22515;SDS011;11424;48.860;9.624;2023-05-31T01:17:37;3.2;;;3.5;;
22515;SDS011;11424;48.860;9.624;2023-05-31T01:22:40;2.1;;;2.3;;
22515;SDS011;11424;48.860;9.624;2023-05-31T01:27:34;1.6;;;1.7;;
22515;SDS011;11424;48.860;9.624;2023-05-31T01:32:34;2.6;;;3.9;;
22515;SDS011;11424;48.860;9.624;2023-05-31T01:37:34;3.2;;;3.4;;
22515;SDS011;11424;48.860;9.624;2023-05-31T01:42:34;2;;;2.5;;
22515;SDS011;11424;48.860;9.624;2023-05-31T01:47:34;3.9;;;4.1;;
22515;SDS011;11424;48.860;9.624;2023-05-31T01:52:34;4.2;;;4.5;;
22515;SDS011;11424;48.860;9.624;2023-05-31T01:57:35;4.5;;;4.8;;
22515;SDS011;11424;48.860;9.624;2023-05-31T02:02:34;3.2;;;3.5;;
22515;SDS011;11424;48.860;9.624;2023-05-31T02:07:34;3.1;;;3.5;;
22515;SDS011;11424;48.860;9.624;2023-05-31T02:12:35;5.2;;;5.7;;
22515;SDS011;11424;48.860;9.624;2023-05-31T02:17:34;4.2;;;4.5;;
22515;SDS011;11424;48.860;9.624;2023-05-31T02:22:34;4.4;;;4.8;;
22515;SDS011;11424;48.860;9.624;2023-05-31T02:27:35;2.5;;;2.7;;
22515;SDS011;11424;48.860;9.624;2023-05-31T02:32:35;2.5;;;2.7;;
22515;SDS011;11424;48.860;9.624;2023-05-31T02:37:35;3;;;3.3;;
22515;SDS011;11424;48.860;9.624;2023-05-31T02:42:35;3.3;;;3.6;;
22515;SDS011;11424;48.860;9.624;2023-05-31T02:47:35;4;;;4.3;;
22515;SDS011;11424;48.860;9.624;2023-05-31T02:52:35;2.9;;;3.3;;
22515;SDS011;11424;48.860;9.624;2023-05-31T02:57:35;4.5;;;4.8;;
22515;SDS011;11424;48.860;9.624;2023-05-31T03:02:35;3.2;;;3.4;;
22515;SDS011;11424;48.860;9.624;2023-05-31T03:07:35;3.8;;;4.1;;
22515;SDS011;11424;48.860;9.624;2023-05-31T03:12:35;3;;;3.6;;
22515;SDS011;11424;48.860;9.624;2023-05-31T03:17:35;3.6;;;4.6;;
22515;SDS011;11424;48.860;9.624;2023-05-31T03:22:35;2.5;;;3.7;;
22515;SDS011;11424;48.860;9.624;2023-05-31T03:27:35;9.1;;;9.6;;
22515;SDS011;11424;48.860;9.624;2023-05-31T03:32:35;3.4;;;3.7;;
22515;SDS011;11424;48.860;9.624;2023-05-31T03:37:35;5;;;5.4;;
22515;SDS011;11424;48.860;9.624;2023-05-31T03:42:35;5.1;;;5.4;;
22515;SDS011;11424;48.860;9.624;2023-05-31T03:47:35;7.7;;;8.2;;
22515;SDS011;11424;48.860;9.624;2023-05-31T03:52:35;5;;;5.4;;
22515;SDS011;11424;48.860;9.624;2023-05-31T03:57:35;8.2;;;8.8;;
22515;SDS011;11424;48.860;9.624;2023-05-31T04:02:35;8.1;;;8.8;;
22515;SDS011;11424;48.860;9.624;2023-05-31T04:07:35;6.1;;;6.6;;
22515;SDS011;11424;48.860;9.624;2023-05-31T04:12:35;6.2;;;6.7;;
22515;SDS011;11424;48.860;9.624;2023-05-31T04:17:35;5.5;;;5.9;;
22515;SDS011;11424;48.860;9.624;2023-05-31T04:22:35;3.8;;;4.1;;
22515;SDS011;11424;48.860;9.624;2023-05-31T04:27:35;2.9;;;3.6;;
22515;SDS011;11424;48.860;9.624;2023-05-31T04:32:35;2.6;;;2.9;;
22515;SDS011;11424;48.860;9.624;2023-05-31T04:37:35;2.1;;;2.5;;
22515;SDS011;11424;48.860;9.624;2023-05-31T04:42:35;2;;;2.5;;
22515;SDS011;11424;48.860;9.624;2023-05-31T04:47:35;1.8;;;2.3;;
22515;SDS011;11424;48.860;9.624;2023-05-31T04:52:35;1.7;;;2.2;;
22515;SDS011;11424;48.860;9.624;2023-05-31T04:57:35;1.9;;;2.7;;
22515;SDS011;11424;48.860;9.624;2023-05-31T05:02:35;1.9;;;2.3;;
22515;SDS011;11424;48.860;9.624;2023-05-31T05:07:35;2.4;;;3.6;;
22515;SDS011;11424;48.860;9.624;2023-05-31T05:12:35;1.9;;;2.9;;
22515;SDS011;11424;48.860;9.624;2023-05-31T05:17:35;2;;;2.4;;
22515;SDS011;11424;48.860;9.624;2023-05-31T05:22:35;2.1;;;3.3;;
22515;SDS011;11424;48.860;9.624;2023-05-31T05:27:35;2.5;;;3.3;;
22515;SDS011;11424;48.860;9.624;2023-05-31T05:32:35;2;;;2.2;;
22515;SDS011;11424;48.860;9.624;2023-05-31T05:37:35;2.1;;;3.7;;
22515;SDS011;11424;48.860;9.624;2023-05-31T05:42:35;1.8;;;2.5;;
22515;SDS011;11424;48.860;9.624;2023-05-31T05:47:35;1.7;;;2.3;;
22515;SDS011;11424;48.860;9.624;2023-05-31T05:52:35;1.8;;;1.9;;
22515;SDS011;11424;48.860;9.624;2023-05-31T05:57:35;1.8;;;2.2;;
22515;SDS011;11424;48.860;9.624;2023-05-31T06:02:35;2;;;3.3;;
22515;SDS011;11424;48.860;9.624;2023-05-31T06:07:35;2.1;;;2.5;;
22515;SDS011;11424;48.860;9.624;2023-05-31T06:12:35;1.9;;;3.1;;
22515;SDS011;11424;48.860;9.624;2023-05-31T06:17:35;1.9;;;2.2;;
22515;SDS011;11424;48.860;9.624;2023-05-31T06:22:35;1.9;;;2.1;;
22515;SDS011;11424;48.860;9.624;2023-05-31T06:27:35;1.8;;;2.2;;
22515;SDS011;11424;48.860;9.624;2023-05-31T06:32:35;2.3;;;3.6;;
22515;SDS011;11424;48.860;9.624;2023-05-31T06:37:36;1.8;;;2.1;;
22515;SDS011;11424;48.860;9.624;2023-05-31T06:42:35;1.9;;;2.3;;
22515;SDS011;11424;48.860;9.624;2023-05-31T06:47:35;2.1;;;2.9;;
22515;SDS011;11424;48.860;9.624;2023-05-31T06:52:35;1.8;;;2.3;;
22515;SDS011;11424;48.860;9.624;2023-05-31T06:57:35;2.1;;;2.9;;
22515;SDS011;11424;48.860;9.624;2023-05-31T07:02:35;2.2;;;2.8;;
22515;SDS011;11424;48.860;9.624;2023-05-31T07:07:35;1.8;;;2.3;;
22515;SDS011;11424;48.860;9.624;2023-05-31T07:12:35;2;;;3.6;;
22515;SDS011;11424;48.860;9.624;2023-05-31T07:17:35;2;;;2.5;;
22515;SDS011;11424;48.860;9.624;2023-05-31T07:22:35;1.9;;;2.5;;
22515;SDS011;11424;48.860;9.624;2023-05-31T07:27:35;1.8;;;2.7;;
22515;SDS011;11424;48.860;9.624;2023-05-31T07:32:35;1.8;;;3.1;;
22515;SDS011;11424;48.860;9.624;2023-05-31T07:37:35;2.1;;;3.3;;
22515;SDS011;11424;48.860;9.624;2023-05-31T07:42:35;1.8;;;2.7;;
22515;SDS011;11424;48.860;9.624;2023-05-31T07:47:35;2.1;;;2.8;;
22515;SDS011;11424;48.860;9.624;2023-05-31T07:52:35;2;;;3.5;;
22515;SDS011;11424;48.860;9.624;2023-05-31T07:57:35;1.9;;;3.9;;
22515;SDS011;11424;48.860;9.624;2023-05-31T08:02:35;1.9;;;2.3;;
22515;SDS011;11424;48.860;9.624;2023-05-31T08:07:35;2.1;;;3.4;;
22515;SDS011;11424;48.860;9.624;2023-05-31T08:12:35;1.9;;;2.5;;
22515;SDS011;11424;48.860;9.624;2023-05-31T08:17:35;2.3;;;2.8;;
22515;SDS011;11424;48.860;9.624;2023-05-31T08:22:35;2.2;;;2.4;;
22515;SDS011;11424;48.860;9.624;2023-05-31T08:27:35;1.8;;;3.5;;
22515;SDS011;11424;48.860;9.624;2023-05-31T08:32:35;2.2;;;4;;
22515;SDS011;11424;48.860;9.624;2023-05-31T08:37:35;2;;;2.4;;
22515;SDS011;11424;48.860;9.624;2023-05-31T08:42:37;2.1;;;3.6;;
22515;SDS011;11424;48.860;9.624;2023-05-31T08:47:36;2.1;;;2.8;;
22515;SDS011;11424;48.860;9.624;2023-05-31T08:52:35;2;;;3;;
22515;SDS011;11424;48.860;9.624;2023-05-31T08:57:35;2.1;;;3.3;;
22515;SDS011;11424;48.860;9.624;2023-05-31T09:02:35;2;;;3.1;;
22515;SDS011;11424;48.860;9.624;2023-05-31T09:07:36;2.1;;;2.4;;
22515;SDS011;11424;48.860;9.624;2023-05-31T09:12:36;2.2;;;3.2;;
22515;SDS011;11424;48.860;9.624;2023-05-31T09:17:35;2.7;;;3;;
22515;SDS011;11424;48.860;9.624;2023-05-31T09:22:35;2.4;;;4.7;;
22515;SDS011;11424;48.860;9.624;2023-05-31T09:27:35;2.3;;;2.8;;
22515;SDS011;11424;48.860;9.624;2023-05-31T09:32:35;2.3;;;2.9;;
22515;SDS011;11424;48.860;9.624;2023-05-31T09:37:38;2.2;;;3.2;;
22515;SDS011;11424;48.860;9.624;2023-05-31T09:42:35;2;;;2.3;;
22515;SDS011;11424;48.860;9.624;2023-05-31T09:47:36;2.2;;;2.4;;
22515;SDS011;11424;48.860;9.624;2023-05-31T09:52:35;2;;;2.3;;
22515;SDS011;11424;48.860;9.624;2023-05-31T09:57:36;2.1;;;2.9;;
22515;SDS011;11424;48.860;9.624;2023-05-31T10:02:35;2.1;;;3;;
22515;SDS011;11424;48.860;9.624;2023-05-31T10:07:36;2.1;;;2.9;;
22515;SDS011;11424;48.860;9.624;2023-05-31T10:12:37;1.9;;;2.6;;
22515;SDS011;11424;48.860;9.624;2023-05-31T10:17:36;2.2;;;2.9;;
22515;SDS011;11424;48.860;9.624;2023-05-31T10:22:36;1.9;;;2.3;;
22515;SDS011;11424;48.860;9.624;2023-05-31T10:27:36;5.4;;;5.8;;
22515;SDS011;11424;48.860;9.624;2023-05-31T10:32:38;2.3;;;3.4;;
22515;SDS011;11424;48.860;9.624;2023-05-31T10:37:35;2.3;;;4;;
22515;SDS011;11424;48.860;9.624;2023-05-31T10:42:36;2;;;2.4;;
22515;SDS011;11424;48.860;9.624;2023-05-31T10:47:37;1.9;;;2.8;;
22515;SDS011;11424;48.860;9.624;2023-05-31T10:52:35;2.3;;;3.4;;
